sensor_id;sensor_type;location;lat;lon;timestamp;temperature;humidity
15413;DHT22;7805;49.554;7.632;2023-09-08T00:01:20;17.50;99.90
15413;DHT22;7805;49.554;7.632;2023-09-08T00:03:46;17.50;99.90
15413;DHT22;7805;49.554;7.632;2023-09-08T00:06:12;17.50;99.90
15413;DHT22;7805;49.554;7.632;2023-09-08T00:08:37;17.50;99.90
15413;DHT22;7805;49.554;7.632;2023-09-08T00:11:03;17.50;99.90
15413;DHT22;7805;49.554;7.632;2023-09-08T00:13:30;17.40;99.90
15413;DHT22;7805;49.554;7.632;2023-09-08T00:15:55;17.40;99.90
15413;DHT22;7805;49.554;7.632;2023-09-08T00:18:21;17.50;99.90
15413;DHT22;7805;49.554;7.632;2023-09-08T00:20:46;17.30;99.90
15413;DHT22;7805;49.554;7.632;2023-09-08T00:23:12;17.40;99.90
15413;DHT22;7805;49.554;7.632;2023-09-08T00:25:38;17.30;99.90
15413;DHT22;7805;49.554;7.632;2023-09-08T00:28:03;17.50;99.90
15413;DHT22;7805;49.554;7.632;2023-09-08T00:30:29;17.30;99.90
15413;DHT22;7805;49.554;7.632;2023-09-08T00:32:54;17.20;99.90
15413;DHT22;7805;49.554;7.632;2023-09-08T00:35:20;17.20;99.90
15413;DHT22;7805;49.554;7.632;2023-09-08T00:37:46;17.10;99.90
15413;DHT22;7805;49.554;7.632;2023-09-08T00:40:11;17.10;99.90
15413;DHT22;7805;49.554;7.632;2023-09-08T00:42:37;17.10;99.90
15413;DHT22;7805;49.554;7.632;2023-09-08T00:45:03;17.10;99.90
15413;DHT22;7805;49.554;7.632;2023-09-08T00:47:29;17.10;99.90
15413;DHT22;7805;49.554;7.632;2023-09-08T00:49:55;17.10;99.90
15413;DHT22;7805;49.554;7.632;2023-09-08T00:52:21;17.00;99.90
15413;DHT22;7805;49.554;7.632;2023-09-08T00:54:46;17.30;99.90
15413;DHT22;7805;49.554;7.632;2023-09-08T00:57:12;17.00;99.90
15413;DHT22;7805;49.554;7.632;2023-09-08T00:59:38;17.00;99.90
15413;DHT22;7805;49.554;7.632;2023-09-08T01:02:04;16.90;99.90
15413;DHT22;7805;49.554;7.632;2023-09-08T01:04:30;16.90;99.90
15413;DHT22;7805;49.554;7.632;2023-09-08T01:06:56;18.20;99.90
15413;DHT22;7805;49.554;7.632;2023-09-08T01:09:22;17.70;99.90
15413;DHT22;7805;49.554;7.632;2023-09-08T01:11:48;16.80;99.90
15413;DHT22;7805;49.554;7.632;2023-09-08T01:14:14;16.80;99.90
15413;DHT22;7805;49.554;7.632;2023-09-08T01:16:42;16.80;99.90
15413;DHT22;7805;49.554;7.632;2023-09-08T01:19:13;16.90;99.90
15413;DHT22;7805;49.554;7.632;2023-09-08T01:27:05;16.80;99.90
15413;DHT22;7805;49.554;7.632;2023-09-08T01:29:32;16.80;99.90
15413;DHT22;7805;49.554;7.632;2023-09-08T01:31:59;16.80;99.90
15413;DHT22;7805;49.554;7.632;2023-09-08T01:34:26;16.80;99.90
15413;DHT22;7805;49.554;7.632;2023-09-08T01:36:51;16.70;99.90
15413;DHT22;7805;49.554;7.632;2023-09-08T01:39:17;16.70;99.90
15413;DHT22;7805;49.554;7.632;2023-09-08T01:41:42;16.70;99.90
15413;DHT22;7805;49.554;7.632;2023-09-08T01:44:08;16.90;99.90
15413;DHT22;7805;49.554;7.632;2023-09-08T01:46:35;16.60;99.90
15413;DHT22;7805;49.554;7.632;2023-09-08T01:49:01;16.60;99.90
15413;DHT22;7805;49.554;7.632;2023-09-08T01:51:26;16.60;99.90
15413;DHT22;7805;49.554;7.632;2023-09-08T01:53:52;16.60;99.90
15413;DHT22;7805;49.554;7.632;2023-09-08T01:56:17;16.60;99.90
15413;DHT22;7805;49.554;7.632;2023-09-08T01:58:43;16.60;99.90
15413;DHT22;7805;49.554;7.632;2023-09-08T02:01:08;16.60;99.90
15413;DHT22;7805;49.554;7.632;2023-09-08T02:03:34;16.60;99.90
15413;DHT22;7805;49.554;7.632;2023-09-08T02:06:00;16.50;99.90
15413;DHT22;7805;49.554;7.632;2023-09-08T02:08:25;16.50;99.90
15413;DHT22;7805;49.554;7.632;2023-09-08T02:10:51;16.50;99.90
15413;DHT22;7805;49.554;7.632;2023-09-08T02:13:17;16.50;99.90
15413;DHT22;7805;49.554;7.632;2023-09-08T02:15:42;16.50;99.90
15413;DHT22;7805;49.554;7.632;2023-09-08T02:18:09;16.50;99.90
15413;DHT22;7805;49.554;7.632;2023-09-08T02:20:34;16.50;99.90
15413;DHT22;7805;49.554;7.632;2023-09-08T02:23:04;16.50;99.90
15413;DHT22;7805;49.554;7.632;2023-09-08T02:25:30;16.40;99.90
15413;DHT22;7805;49.554;7.632;2023-09-08T02:27:56;16.40;99.90
15413;DHT22;7805;49.554;7.632;2023-09-08T02:30:21;16.40;99.90
15413;DHT22;7805;49.554;7.632;2023-09-08T02:32:47;16.30;99.90
15413;DHT22;7805;49.554;7.632;2023-09-08T02:35:13;16.30;99.90
15413;DHT22;7805;49.554;7.632;2023-09-08T02:37:38;16.30;99.90
15413;DHT22;7805;49.554;7.632;2023-09-08T02:40:05;18.30;99.90
15413;DHT22;7805;49.554;7.632;2023-09-08T02:42:31;16.30;99.90
15413;DHT22;7805;49.554;7.632;2023-09-08T02:44:56;16.30;99.90
15413;DHT22;7805;49.554;7.632;2023-09-08T02:47:22;16.20;99.90
15413;DHT22;7805;49.554;7.632;2023-09-08T02:49:48;16.20;99.90
15413;DHT22;7805;49.554;7.632;2023-09-08T02:52:13;16.20;99.90
15413;DHT22;7805;49.554;7.632;2023-09-08T02:54:39;16.60;99.90
15413;DHT22;7805;49.554;7.632;2023-09-08T02:57:05;16.10;99.90
15413;DHT22;7805;49.554;7.632;2023-09-08T02:59:30;16.00;99.90
15413;DHT22;7805;49.554;7.632;2023-09-08T03:01:56;16.00;99.90
15413;DHT22;7805;49.554;7.632;2023-09-08T03:04:21;16.20;99.90
15413;DHT22;7805;49.554;7.632;2023-09-08T03:06:47;16.00;99.90
15413;DHT22;7805;49.554;7.632;2023-09-08T03:09:13;16.00;99.90
15413;DHT22;7805;49.554;7.632;2023-09-08T03:11:38;16.00;99.90
15413;DHT22;7805;49.554;7.632;2023-09-08T03:14:04;16.00;99.90
15413;DHT22;7805;49.554;7.632;2023-09-08T03:16:30;16.00;99.90
15413;DHT22;7805;49.554;7.632;2023-09-08T03:18:55;16.00;99.90
15413;DHT22;7805;49.554;7.632;2023-09-08T03:21:21;16.00;99.90
15413;DHT22;7805;49.554;7.632;2023-09-08T03:23:46;16.00;99.90
15413;DHT22;7805;49.554;7.632;2023-09-08T03:26:12;15.90;99.90
15413;DHT22;7805;49.554;7.632;2023-09-08T03:28:38;15.90;99.90
15413;DHT22;7805;49.554;7.632;2023-09-08T03:31:04;15.90;99.90
15413;DHT22;7805;49.554;7.632;2023-09-08T03:33:30;15.90;99.90
15413;DHT22;7805;49.554;7.632;2023-09-08T03:35:56;15.90;99.90
15413;DHT22;7805;49.554;7.632;2023-09-08T03:38:22;15.90;99.90
15413;DHT22;7805;49.554;7.632;2023-09-08T03:40:48;15.90;99.90
15413;DHT22;7805;49.554;7.632;2023-09-08T03:43:13;15.80;99.90
15413;DHT22;7805;49.554;7.632;2023-09-08T03:45:39;15.80;99.90
15413;DHT22;7805;49.554;7.632;2023-09-08T03:48:05;15.80;99.90
15413;DHT22;7805;49.554;7.632;2023-09-08T03:50:31;15.80;99.90
15413;DHT22;7805;49.554;7.632;2023-09-08T03:52:57;15.80;99.90
15413;DHT22;7805;49.554;7.632;2023-09-08T03:55:22;15.80;99.90
15413;DHT22;7805;49.554;7.632;2023-09-08T03:57:48;15.80;99.90
15413;DHT22;7805;49.554;7.632;2023-09-08T04:00:14;15.80;99.90
15413;DHT22;7805;49.554;7.632;2023-09-08T04:02:45;15.80;99.90
15413;DHT22;7805;49.554;7.632;2023-09-08T04:05:11;15.80;99.90
15413;DHT22;7805;49.554;7.632;2023-09-08T04:07:37;15.80;99.90
15413;DHT22;7805;49.554;7.632;2023-09-08T04:10:03;15.70;99.90
15413;DHT22;7805;49.554;7.632;2023-09-08T04:12:28;15.70;99.90
15413;DHT22;7805;49.554;7.632;2023-09-08T04:14:54;15.70;99.90
15413;DHT22;7805;49.554;7.632;2023-09-08T04:17:20;15.70;99.90
15413;DHT22;7805;49.554;7.632;2023-09-08T04:19:45;15.60;99.90
15413;DHT22;7805;49.554;7.632;2023-09-08T04:22:11;15.60;99.90
15413;DHT22;7805;49.554;7.632;2023-09-08T04:24:37;15.60;99.90
15413;DHT22;7805;49.554;7.632;2023-09-08T04:27:03;15.70;99.90
15413;DHT22;7805;49.554;7.632;2023-09-08T04:29:29;15.60;99.90
15413;DHT22;7805;49.554;7.632;2023-09-08T04:31:57;15.60;99.90
15413;DHT22;7805;49.554;7.632;2023-09-08T04:34:23;15.60;99.90
15413;DHT22;7805;49.554;7.632;2023-09-08T04:36:49;15.80;99.90
15413;DHT22;7805;49.554;7.632;2023-09-08T04:39:14;14.20;99.90
15413;DHT22;7805;49.554;7.632;2023-09-08T04:41:41;15.60;99.90
15413;DHT22;7805;49.554;7.632;2023-09-08T04:44:06;15.60;99.90
15413;DHT22;7805;49.554;7.632;2023-09-08T04:46:32;15.50;99.90
15413;DHT22;7805;49.554;7.632;2023-09-08T04:48:57;16.60;99.90
15413;DHT22;7805;49.554;7.632;2023-09-08T04:51:23;15.40;99.90
15413;DHT22;7805;49.554;7.632;2023-09-08T04:53:49;15.40;99.90
15413;DHT22;7805;49.554;7.632;2023-09-08T04:56:14;15.40;99.90
15413;DHT22;7805;49.554;7.632;2023-09-08T04:58:40;15.40;99.90
15413;DHT22;7805;49.554;7.632;2023-09-08T05:01:05;15.40;99.90
15413;DHT22;7805;49.554;7.632;2023-09-08T05:03:31;15.40;99.90
15413;DHT22;7805;49.554;7.632;2023-09-08T05:05:57;17.00;99.90
15413;DHT22;7805;49.554;7.632;2023-09-08T05:08:22;15.40;99.90
15413;DHT22;7805;49.554;7.632;2023-09-08T05:10:48;15.30;99.90
15413;DHT22;7805;49.554;7.632;2023-09-08T05:13:16;15.30;99.90
15413;DHT22;7805;49.554;7.632;2023-09-08T05:15:42;15.30;99.90
15413;DHT22;7805;49.554;7.632;2023-09-08T05:18:09;15.30;99.90
15413;DHT22;7805;49.554;7.632;2023-09-08T05:20:34;15.20;99.90
15413;DHT22;7805;49.554;7.632;2023-09-08T05:23:00;15.20;99.90
15413;DHT22;7805;49.554;7.632;2023-09-08T05:25:26;15.20;99.90
15413;DHT22;7805;49.554;7.632;2023-09-08T05:27:51;15.30;99.90
15413;DHT22;7805;49.554;7.632;2023-09-08T05:30:17;15.30;99.90
15413;DHT22;7805;49.554;7.632;2023-09-08T05:32:42;15.40;99.90
15413;DHT22;7805;49.554;7.632;2023-09-08T05:35:08;15.30;99.90
15413;DHT22;7805;49.554;7.632;2023-09-08T05:37:33;15.30;99.90
15413;DHT22;7805;49.554;7.632;2023-09-08T05:39:59;15.30;99.90
15413;DHT22;7805;49.554;7.632;2023-09-08T05:42:24;15.40;99.90
15413;DHT22;7805;49.554;7.632;2023-09-08T05:44:50;15.40;99.90
15413;DHT22;7805;49.554;7.632;2023-09-08T05:47:16;15.50;99.90
15413;DHT22;7805;49.554;7.632;2023-09-08T05:49:41;15.50;99.90
15413;DHT22;7805;49.554;7.632;2023-09-08T05:52:07;15.50;99.90
15413;DHT22;7805;49.554;7.632;2023-09-08T05:54:32;15.60;99.90
15413;DHT22;7805;49.554;7.632;2023-09-08T05:56:58;15.60;99.90
15413;DHT22;7805;49.554;7.632;2023-09-08T05:59:24;15.40;99.90
15413;DHT22;7805;49.554;7.632;2023-09-08T06:01:50;15.70;99.90
15413;DHT22;7805;49.554;7.632;2023-09-08T06:04:15;15.60;99.90
15413;DHT22;7805;49.554;7.632;2023-09-08T06:06:41;15.60;99.90
15413;DHT22;7805;49.554;7.632;2023-09-08T06:09:07;15.60;99.90
15413;DHT22;7805;49.554;7.632;2023-09-08T06:11:33;15.70;99.90
15413;DHT22;7805;49.554;7.632;2023-09-08T06:13:59;15.80;99.90
15413;DHT22;7805;49.554;7.632;2023-09-08T06:16:26;16.00;99.90
15413;DHT22;7805;49.554;7.632;2023-09-08T06:18:51;16.40;99.90
15413;DHT22;7805;49.554;7.632;2023-09-08T06:21:17;16.70;99.90
15413;DHT22;7805;49.554;7.632;2023-09-08T06:23:42;17.10;99.90
15413;DHT22;7805;49.554;7.632;2023-09-08T06:26:08;17.50;99.90
15413;DHT22;7805;49.554;7.632;2023-09-08T06:28:34;17.70;99.90
15413;DHT22;7805;49.554;7.632;2023-09-08T06:30:59;17.90;99.90
15413;DHT22;7805;49.554;7.632;2023-09-08T06:33:25;18.40;99.90
15413;DHT22;7805;49.554;7.632;2023-09-08T06:35:51;18.70;99.90
15413;DHT22;7805;49.554;7.632;2023-09-08T06:38:19;18.90;99.90
15413;DHT22;7805;49.554;7.632;2023-09-08T06:40:45;19.20;99.90
15413;DHT22;7805;49.554;7.632;2023-09-08T06:43:10;19.50;99.90
15413;DHT22;7805;49.554;7.632;2023-09-08T06:45:38;19.80;99.90
15413;DHT22;7805;49.554;7.632;2023-09-08T06:48:05;20.20;99.90
15413;DHT22;7805;49.554;7.632;2023-09-08T06:50:31;20.40;99.90
15413;DHT22;7805;49.554;7.632;2023-09-08T06:52:56;20.60;99.90
15413;DHT22;7805;49.554;7.632;2023-09-08T06:55:22;20.90;99.90
15413;DHT22;7805;49.554;7.632;2023-09-08T06:57:48;21.10;99.90
15413;DHT22;7805;49.554;7.632;2023-09-08T07:00:14;21.30;99.90
15413;DHT22;7805;49.554;7.632;2023-09-08T07:02:40;21.40;99.90
15413;DHT22;7805;49.554;7.632;2023-09-08T07:05:05;21.60;99.90
15413;DHT22;7805;49.554;7.632;2023-09-08T07:07:35;21.70;99.90
15413;DHT22;7805;49.554;7.632;2023-09-08T07:10:02;21.90;99.90
15413;DHT22;7805;49.554;7.632;2023-09-08T07:12:28;22.20;99.90
15413;DHT22;7805;49.554;7.632;2023-09-08T07:14:53;22.20;99.90
15413;DHT22;7805;49.554;7.632;2023-09-08T07:17:19;21.90;99.90
15413;DHT22;7805;49.554;7.632;2023-09-08T07:19:45;22.00;99.90
15413;DHT22;7805;49.554;7.632;2023-09-08T07:22:10;22.20;99.90
15413;DHT22;7805;49.554;7.632;2023-09-08T07:24:36;22.50;99.90
15413;DHT22;7805;49.554;7.632;2023-09-08T07:27:01;22.60;99.90
15413;DHT22;7805;49.554;7.632;2023-09-08T07:29:27;22.90;99.90
15413;DHT22;7805;49.554;7.632;2023-09-08T07:31:53;23.10;99.90
15413;DHT22;7805;49.554;7.632;2023-09-08T07:34:19;23.10;99.90
15413;DHT22;7805;49.554;7.632;2023-09-08T07:36:44;23.20;99.90
15413;DHT22;7805;49.554;7.632;2023-09-08T07:39:10;23.40;99.90
15413;DHT22;7805;49.554;7.632;2023-09-08T07:41:35;23.70;99.90
15413;DHT22;7805;49.554;7.632;2023-09-08T07:44:01;24.10;99.90
15413;DHT22;7805;49.554;7.632;2023-09-08T07:46:27;24.40;99.90
15413;DHT22;7805;49.554;7.632;2023-09-08T07:48:53;24.30;99.90
15413;DHT22;7805;49.554;7.632;2023-09-08T07:51:19;24.60;99.90
15413;DHT22;7805;49.554;7.632;2023-09-08T07:53:44;25.20;99.90
15413;DHT22;7805;49.554;7.632;2023-09-08T07:56:10;25.40;99.90
15413;DHT22;7805;49.554;7.632;2023-09-08T07:58:36;25.90;99.90
15413;DHT22;7805;49.554;7.632;2023-09-08T08:01:02;25.80;99.90
15413;DHT22;7805;49.554;7.632;2023-09-08T08:03:27;25.90;99.90
15413;DHT22;7805;49.554;7.632;2023-09-08T08:05:53;26.20;99.90
15413;DHT22;7805;49.554;7.632;2023-09-08T08:08:18;26.30;99.90
15413;DHT22;7805;49.554;7.632;2023-09-08T08:10:44;26.50;99.90
15413;DHT22;7805;49.554;7.632;2023-09-08T08:13:09;26.20;99.90
15413;DHT22;7805;49.554;7.632;2023-09-08T08:15:37;26.50;99.90
15413;DHT22;7805;49.554;7.632;2023-09-08T08:18:04;26.50;99.70
15413;DHT22;7805;49.554;7.632;2023-09-08T08:20:30;26.80;99.90
15413;DHT22;7805;49.554;7.632;2023-09-08T08:23:03;27.20;99.40
15413;DHT22;7805;49.554;7.632;2023-09-08T08:25:29;27.40;98.70
15413;DHT22;7805;49.554;7.632;2023-09-08T08:27:54;27.50;98.60
15413;DHT22;7805;49.554;7.632;2023-09-08T08:30:22;27.70;98.20
15413;DHT22;7805;49.554;7.632;2023-09-08T08:32:47;27.90;97.80
15413;DHT22;7805;49.554;7.632;2023-09-08T08:35:13;28.20;97.50
15413;DHT22;7805;49.554;7.632;2023-09-08T08:37:40;28.30;97.20
15413;DHT22;7805;49.554;7.632;2023-09-08T08:40:07;28.40;97.20
15413;DHT22;7805;49.554;7.632;2023-09-08T08:42:34;28.50;96.80
15413;DHT22;7805;49.554;7.632;2023-09-08T08:45:00;28.40;96.80
15413;DHT22;7805;49.554;7.632;2023-09-08T08:47:27;28.30;96.80
15413;DHT22;7805;49.554;7.632;2023-09-08T08:49:56;28.40;96.70
15413;DHT22;7805;49.554;7.632;2023-09-08T08:52:22;28.70;96.50
15413;DHT22;7805;49.554;7.632;2023-09-08T08:54:47;29.00;95.80
15413;DHT22;7805;49.554;7.632;2023-09-08T08:57:14;28.80;95.10
15413;DHT22;7805;49.554;7.632;2023-09-08T08:59:40;28.80;95.00
15413;DHT22;7805;49.554;7.632;2023-09-08T09:02:08;29.10;94.50
15413;DHT22;7805;49.554;7.632;2023-09-08T09:04:36;29.30;94.30
15413;DHT22;7805;49.554;7.632;2023-09-08T09:07:03;29.40;93.10
15413;DHT22;7805;49.554;7.632;2023-09-08T09:09:29;29.40;93.70
15413;DHT22;7805;49.554;7.632;2023-09-08T09:11:55;29.50;93.40
15413;DHT22;7805;49.554;7.632;2023-09-08T09:14:20;29.70;93.10
15413;DHT22;7805;49.554;7.632;2023-09-08T09:16:48;30.00;93.00
15413;DHT22;7805;49.554;7.632;2023-09-08T09:19:19;30.20;91.90
15413;DHT22;7805;49.554;7.632;2023-09-08T09:21:51;30.40;91.30
15413;DHT22;7805;49.554;7.632;2023-09-08T09:24:39;30.30;91.30
15413;DHT22;7805;49.554;7.632;2023-09-08T09:27:11;30.30;90.70
15413;DHT22;7805;49.554;7.632;2023-09-08T09:29:50;30.20;91.10
15413;DHT22;7805;49.554;7.632;2023-09-08T09:32:16;30.20;90.30
15413;DHT22;7805;49.554;7.632;2023-09-08T09:34:50;30.20;90.90
15413;DHT22;7805;49.554;7.632;2023-09-08T09:37:16;30.20;90.70
15413;DHT22;7805;49.554;7.632;2023-09-08T09:39:42;30.50;90.80
15413;DHT22;7805;49.554;7.632;2023-09-08T09:42:07;30.60;90.40
15413;DHT22;7805;49.554;7.632;2023-09-08T09:44:33;30.90;90.00
15413;DHT22;7805;49.554;7.632;2023-09-08T09:47:00;31.10;88.60
15413;DHT22;7805;49.554;7.632;2023-09-08T09:49:26;31.30;87.40
15413;DHT22;7805;49.554;7.632;2023-09-08T09:51:58;31.50;86.50
15413;DHT22;7805;49.554;7.632;2023-09-08T09:54:24;31.70;85.10
15413;DHT22;7805;49.554;7.632;2023-09-08T09:56:50;31.80;84.90
15413;DHT22;7805;49.554;7.632;2023-09-08T09:59:17;31.90;83.50
15413;DHT22;7805;49.554;7.632;2023-09-08T10:01:43;31.80;82.50
15413;DHT22;7805;49.554;7.632;2023-09-08T10:04:09;31.80;82.10
15413;DHT22;7805;49.554;7.632;2023-09-08T10:06:37;32.00;81.90
15413;DHT22;7805;49.554;7.632;2023-09-08T10:09:04;32.10;80.30
15413;DHT22;7805;49.554;7.632;2023-09-08T10:11:38;32.10;79.50
15413;DHT22;7805;49.554;7.632;2023-09-08T10:14:07;32.40;78.70
15413;DHT22;7805;49.554;7.632;2023-09-08T10:16:38;32.50;79.00
15413;DHT22;7805;49.554;7.632;2023-09-08T10:19:08;32.70;78.30
15413;DHT22;7805;49.554;7.632;2023-09-08T10:21:40;32.90;77.30
15413;DHT22;7805;49.554;7.632;2023-09-08T10:24:16;32.90;76.90
15413;DHT22;7805;49.554;7.632;2023-09-08T10:26:47;33.00;75.80
15413;DHT22;7805;49.554;7.632;2023-09-08T10:29:17;32.50;75.10
15413;DHT22;7805;49.554;7.632;2023-09-08T10:31:44;32.40;76.90
15413;DHT22;7805;49.554;7.632;2023-09-08T10:34:10;32.50;77.10
15413;DHT22;7805;49.554;7.632;2023-09-08T10:36:36;32.70;77.10
15413;DHT22;7805;49.554;7.632;2023-09-08T10:39:35;32.90;77.00
15413;DHT22;7805;49.554;7.632;2023-09-08T10:45:02;33.50;74.50
15413;DHT22;7805;49.554;7.632;2023-09-08T10:48:03;33.80;73.40
15413;DHT22;7805;49.554;7.632;2023-09-08T10:50:35;33.50;73.20
15413;DHT22;7805;49.554;7.632;2023-09-08T10:58:09;33.70;72.50
15413;DHT22;7805;49.554;7.632;2023-09-08T11:00:51;33.80;72.10
15413;DHT22;7805;49.554;7.632;2023-09-08T11:03:27;33.50;70.20
15413;DHT22;7805;49.554;7.632;2023-09-08T11:05:53;33.50;71.60
15413;DHT22;7805;49.554;7.632;2023-09-08T11:08:19;33.60;72.10
15413;DHT22;7805;49.554;7.632;2023-09-08T11:10:45;33.40;70.90
15413;DHT22;7805;49.554;7.632;2023-09-08T11:13:10;33.30;71.20
15413;DHT22;7805;49.554;7.632;2023-09-08T11:15:37;33.50;70.90
15413;DHT22;7805;49.554;7.632;2023-09-08T11:18:06;33.60;70.50
15413;DHT22;7805;49.554;7.632;2023-09-08T11:20:33;33.80;70.80
15413;DHT22;7805;49.554;7.632;2023-09-08T11:22:59;34.00;70.40
15413;DHT22;7805;49.554;7.632;2023-09-08T11:25:25;34.00;69.60
15413;DHT22;7805;49.554;7.632;2023-09-08T11:27:50;34.10;68.70
15413;DHT22;7805;49.554;7.632;2023-09-08T11:30:16;33.80;68.60
15413;DHT22;7805;49.554;7.632;2023-09-08T11:32:42;33.90;70.00
15413;DHT22;7805;49.554;7.632;2023-09-08T11:35:09;34.20;69.90
15413;DHT22;7805;49.554;7.632;2023-09-08T11:37:41;34.10;69.20
15413;DHT22;7805;49.554;7.632;2023-09-08T11:40:09;34.50;68.40
15413;DHT22;7805;49.554;7.632;2023-09-08T11:42:35;34.80;67.80
15413;DHT22;7805;49.554;7.632;2023-09-08T11:45:01;36.70;68.50
15413;DHT22;7805;49.554;7.632;2023-09-08T11:47:29;34.80;66.30
15413;DHT22;7805;49.554;7.632;2023-09-08T11:49:55;35.00;66.80
15413;DHT22;7805;49.554;7.632;2023-09-08T11:52:25;34.90;65.50
15413;DHT22;7805;49.554;7.632;2023-09-08T11:54:51;35.00;65.70
15413;DHT22;7805;49.554;7.632;2023-09-08T11:57:17;35.20;65.40
15413;DHT22;7805;49.554;7.632;2023-09-08T11:59:44;35.60;65.10
15413;DHT22;7805;49.554;7.632;2023-09-08T12:02:13;35.80;64.40
15413;DHT22;7805;49.554;7.632;2023-09-08T12:04:39;36.00;63.80
15413;DHT22;7805;49.554;7.632;2023-09-08T12:07:07;36.20;63.30
15413;DHT22;7805;49.554;7.632;2023-09-08T12:09:40;36.30;63.10
15413;DHT22;7805;49.554;7.632;2023-09-08T12:12:13;36.00;62.70
15413;DHT22;7805;49.554;7.632;2023-09-08T12:14:42;35.60;61.70
15413;DHT22;7805;49.554;7.632;2023-09-08T12:17:08;35.00;62.50
15413;DHT22;7805;49.554;7.632;2023-09-08T12:19:34;35.00;64.40
15413;DHT22;7805;49.554;7.632;2023-09-08T12:22:03;35.30;64.70
15413;DHT22;7805;49.554;7.632;2023-09-08T12:24:49;35.20;63.30
15413;DHT22;7805;49.554;7.632;2023-09-08T12:27:16;35.40;63.30
15413;DHT22;7805;49.554;7.632;2023-09-08T12:29:58;35.50;63.80
15413;DHT22;7805;49.554;7.632;2023-09-08T12:32:28;36.00;62.60
15413;DHT22;7805;49.554;7.632;2023-09-08T12:34:54;36.30;62.40
15413;DHT22;7805;49.554;7.632;2023-09-08T12:37:24;36.60;61.90
15413;DHT22;7805;49.554;7.632;2023-09-08T12:39:50;36.70;61.60
15413;DHT22;7805;49.554;7.632;2023-09-08T12:42:18;36.90;60.90
15413;DHT22;7805;49.554;7.632;2023-09-08T12:44:43;36.90;60.40
15413;DHT22;7805;49.554;7.632;2023-09-08T12:47:10;36.80;60.40
15413;DHT22;7805;49.554;7.632;2023-09-08T12:49:37;36.90;60.10
15413;DHT22;7805;49.554;7.632;2023-09-08T12:52:03;37.10;60.00
15413;DHT22;7805;49.554;7.632;2023-09-08T12:54:28;37.30;59.30
15413;DHT22;7805;49.554;7.632;2023-09-08T12:56:54;37.50;58.30
15413;DHT22;7805;49.554;7.632;2023-09-08T12:59:20;37.40;58.00
15413;DHT22;7805;49.554;7.632;2023-09-08T13:01:46;37.50;57.80
15413;DHT22;7805;49.554;7.632;2023-09-08T13:04:12;37.40;57.90
15413;DHT22;7805;49.554;7.632;2023-09-08T13:06:37;37.50;58.00
15413;DHT22;7805;49.554;7.632;2023-09-08T13:09:03;38.70;58.60
15413;DHT22;7805;49.554;7.632;2023-09-08T13:11:28;37.00;58.00
15413;DHT22;7805;49.554;7.632;2023-09-08T13:13:54;36.90;58.20
15413;DHT22;7805;49.554;7.632;2023-09-08T13:16:19;37.20;58.00
15413;DHT22;7805;49.554;7.632;2023-09-08T13:18:45;37.60;57.60
15413;DHT22;7805;49.554;7.632;2023-09-08T13:21:11;36.90;56.10
15413;DHT22;7805;49.554;7.632;2023-09-08T13:23:37;36.10;57.70
15413;DHT22;7805;49.554;7.632;2023-09-08T13:26:02;36.20;58.80
15413;DHT22;7805;49.554;7.632;2023-09-08T13:28:28;36.60;58.90
15413;DHT22;7805;49.554;7.632;2023-09-08T13:30:53;36.60;58.60
15413;DHT22;7805;49.554;7.632;2023-09-08T13:33:19;36.90;58.40
15413;DHT22;7805;49.554;7.632;2023-09-08T13:35:45;37.40;58.00
15413;DHT22;7805;49.554;7.632;2023-09-08T13:38:11;37.60;56.90
15413;DHT22;7805;49.554;7.632;2023-09-08T13:40:36;37.50;57.10
15413;DHT22;7805;49.554;7.632;2023-09-08T13:43:02;37.60;56.90
15413;DHT22;7805;49.554;7.632;2023-09-08T13:45:28;37.70;56.40
15413;DHT22;7805;49.554;7.632;2023-09-08T13:47:53;37.40;56.70
15413;DHT22;7805;49.554;7.632;2023-09-08T13:50:19;37.30;56.70
15413;DHT22;7805;49.554;7.632;2023-09-08T13:52:44;37.50;57.00
15413;DHT22;7805;49.554;7.632;2023-09-08T13:55:10;37.80;56.80
15413;DHT22;7805;49.554;7.632;2023-09-08T13:57:36;37.70;56.30
15413;DHT22;7805;49.554;7.632;2023-09-08T14:00:03;37.80;56.50
15413;DHT22;7805;49.554;7.632;2023-09-08T14:02:28;38.10;55.80
15413;DHT22;7805;49.554;7.632;2023-09-08T14:04:54;38.00;55.40
15413;DHT22;7805;49.554;7.632;2023-09-08T14:07:20;38.10;55.30
15413;DHT22;7805;49.554;7.632;2023-09-08T14:09:45;37.90;55.50
15413;DHT22;7805;49.554;7.632;2023-09-08T14:12:11;37.80;56.40
15413;DHT22;7805;49.554;7.632;2023-09-08T14:14:36;37.90;55.50
15413;DHT22;7805;49.554;7.632;2023-09-08T14:17:02;38.10;55.70
15413;DHT22;7805;49.554;7.632;2023-09-08T14:19:28;38.50;55.30
15413;DHT22;7805;49.554;7.632;2023-09-08T14:21:53;38.30;54.50
15413;DHT22;7805;49.554;7.632;2023-09-08T14:24:19;38.00;55.10
15413;DHT22;7805;49.554;7.632;2023-09-08T14:26:44;38.10;55.50
15413;DHT22;7805;49.554;7.632;2023-09-08T14:29:10;38.30;55.20
15413;DHT22;7805;49.554;7.632;2023-09-08T14:31:36;38.50;55.10
15413;DHT22;7805;49.554;7.632;2023-09-08T14:34:01;38.60;54.70
15413;DHT22;7805;49.554;7.632;2023-09-08T14:36:27;38.40;54.20
15413;DHT22;7805;49.554;7.632;2023-09-08T14:38:53;38.30;54.30
15413;DHT22;7805;49.554;7.632;2023-09-08T14:41:18;38.00;54.30
15413;DHT22;7805;49.554;7.632;2023-09-08T14:43:44;38.00;54.10
15413;DHT22;7805;49.554;7.632;2023-09-08T14:46:09;38.00;54.70
15413;DHT22;7805;49.554;7.632;2023-09-08T14:48:35;38.10;54.60
15413;DHT22;7805;49.554;7.632;2023-09-08T14:51:01;38.00;54.10
15413;DHT22;7805;49.554;7.632;2023-09-08T14:53:29;38.00;54.40
15413;DHT22;7805;49.554;7.632;2023-09-08T14:55:57;38.00;54.40
15413;DHT22;7805;49.554;7.632;2023-09-08T14:58:23;37.60;54.70
15413;DHT22;7805;49.554;7.632;2023-09-08T15:00:50;37.30;55.40
15413;DHT22;7805;49.554;7.632;2023-09-08T15:03:15;37.20;56.10
15413;DHT22;7805;49.554;7.632;2023-09-08T15:05:41;37.20;56.10
15413;DHT22;7805;49.554;7.632;2023-09-08T15:08:06;37.20;56.00
15413;DHT22;7805;49.554;7.632;2023-09-08T15:10:32;38.90;57.10
15413;DHT22;7805;49.554;7.632;2023-09-08T15:12:58;36.80;56.10
15413;DHT22;7805;49.554;7.632;2023-09-08T15:15:24;36.70;56.40
15413;DHT22;7805;49.554;7.632;2023-09-08T15:17:53;36.50;56.60
15413;DHT22;7805;49.554;7.632;2023-09-08T15:20:19;36.50;56.90
15413;DHT22;7805;49.554;7.632;2023-09-08T15:22:45;36.50;56.90
15413;DHT22;7805;49.554;7.632;2023-09-08T15:25:10;36.60;57.20
15413;DHT22;7805;49.554;7.632;2023-09-08T15:27:36;36.60;57.80
15413;DHT22;7805;49.554;7.632;2023-09-08T15:30:01;36.70;57.70
15413;DHT22;7805;49.554;7.632;2023-09-08T15:32:27;36.70;57.50
15413;DHT22;7805;49.554;7.632;2023-09-08T15:34:53;36.80;57.50
15413;DHT22;7805;49.554;7.632;2023-09-08T15:37:18;36.90;57.60
15413;DHT22;7805;49.554;7.632;2023-09-08T15:39:44;37.00;57.60
15413;DHT22;7805;49.554;7.632;2023-09-08T15:42:12;37.00;57.70
15413;DHT22;7805;49.554;7.632;2023-09-08T15:44:38;37.10;57.40
15413;DHT22;7805;49.554;7.632;2023-09-08T15:47:03;37.10;57.30
15413;DHT22;7805;49.554;7.632;2023-09-08T15:49:29;37.20;57.40
15413;DHT22;7805;49.554;7.632;2023-09-08T15:51:54;37.20;57.40
15413;DHT22;7805;49.554;7.632;2023-09-08T15:54:20;37.20;57.40